createdAt,value
2022-11-22T00:00:34.476Z,-19.86
2022-11-22T00:01:34.501Z,-19.89
2022-11-22T00:02:34.543Z,-20.45
2022-11-22T00:03:34.433Z,-20.79
2022-11-22T00:04:34.422Z,-20.57
2022-11-22T00:05:34.415Z,-20.66
2022-11-22T00:06:34.393Z,-20.62
2022-11-22T00:07:34.588Z,-20.81
2022-11-22T00:08:34.372Z,-20.67
2022-11-22T00:09:34.363Z,-21.20
2022-11-22T00:10:37.342Z,-21.44
2022-11-22T00:11:37.344Z,-21.00
2022-11-22T00:12:34.364Z,-21.11
2022-11-22T00:13:34.311Z,-21.19
2022-11-22T00:14:34.333Z,-21.38
2022-11-22T00:15:34.283Z,-21.83
2022-11-22T00:16:34.264Z,-22.16
2022-11-22T00:17:34.264Z,-22.02
2022-11-22T00:18:34.429Z,-22.36
2022-11-22T00:19:34.225Z,-22.37
2022-11-22T00:20:34.216Z,-22.36
2022-11-22T00:21:34.206Z,-22.66
2022-11-22T00:22:35.609Z,-22.42
2022-11-22T00:23:34.175Z,-22.53
2022-11-22T00:24:34.189Z,-22.78
2022-11-22T00:25:34.148Z,-22.99
2022-11-22T00:26:34.136Z,-23.23
2022-11-22T00:27:34.123Z,-23.75
2022-11-22T00:28:34.156Z,-23.04
2022-11-22T00:29:34.097Z,-23.28
2022-11-22T00:30:37.095Z,-23.17
2022-11-22T00:31:37.110Z,-23.47
2022-11-22T00:32:34.055Z,-23.60
2022-11-22T00:33:34.050Z,-23.32
2022-11-22T00:34:34.059Z,-23.47
2022-11-22T00:35:34.046Z,-23.31
2022-11-22T00:36:34.007Z,-23.31
2022-11-22T00:37:34.005Z,-23.39
2022-11-22T00:38:33.989Z,-23.08
2022-11-22T00:39:33.997Z,-23.17
2022-11-22T00:40:33.955Z,-23.31
2022-11-22T00:41:33.966Z,-24.21
2022-11-22T00:42:33.937Z,-24.15
2022-11-22T00:43:33.907Z,-24.69
2022-11-22T00:44:33.898Z,-24.84
2022-11-22T00:45:33.910Z,-24.80
2022-11-22T00:46:33.881Z,-24.27
2022-11-22T00:47:33.869Z,-24.18
2022-11-22T00:48:33.849Z,-24.47
2022-11-22T00:49:33.838Z,-24.15
2022-11-22T00:50:36.860Z,-23.93
2022-11-22T00:51:36.820Z,-23.83
2022-11-22T00:52:33.801Z,-23.55
2022-11-22T00:53:33.812Z,-24.10
2022-11-22T00:54:33.781Z,-24.25
2022-11-22T00:55:33.759Z,-24.69
2022-11-22T00:56:33.750Z,-24.85
2022-11-22T00:57:33.744Z,-24.52
2022-11-22T00:58:33.759Z,-24.09
2022-11-22T00:59:33.719Z,-24.13
2022-11-22T01:00:33.728Z,-24.18
2022-11-22T01:01:33.787Z,-24.15
2022-11-22T01:02:33.678Z,-24.32
2022-11-22T01:03:33.659Z,-24.27
2022-11-22T01:04:33.652Z,-24.19
2022-11-22T01:05:33.631Z,-24.41
2022-11-22T01:06:33.632Z,-24.19
2022-11-22T01:07:33.715Z,-24.34
2022-11-22T01:08:33.600Z,-24.65
2022-11-22T01:09:33.588Z,-24.44
2022-11-22T01:10:36.613Z,-24.77
2022-11-22T01:11:36.571Z,-24.81
2022-11-22T01:12:33.550Z,-25.04
2022-11-22T01:13:33.540Z,-25.46
2022-11-22T01:14:33.520Z,-25.12
2022-11-22T01:15:33.545Z,-25.22
2022-11-22T01:16:33.503Z,-25.11
2022-11-22T01:17:33.482Z,-25.14
2022-11-22T01:18:33.472Z,-25.28
2022-11-22T01:19:33.458Z,-25.44
2022-11-22T01:20:33.451Z,-25.73
2022-11-22T01:21:33.485Z,-25.77
2022-11-22T01:22:33.422Z,-25.56
2022-11-22T01:23:33.418Z,-26.08
2022-11-22T01:24:33.404Z,-26.13
2022-11-22T01:25:33.386Z,-26.02
2022-11-22T01:26:33.374Z,-26.23
2022-11-22T01:27:33.383Z,-26.45
2022-11-22T01:28:33.353Z,-26.58
2022-11-22T01:29:33.342Z,-26.75
2022-11-22T01:30:36.324Z,-27.00
2022-11-22T01:31:36.343Z,-26.96
2022-11-22T01:32:33.322Z,-26.78
2022-11-22T01:33:33.285Z,-26.55
2022-11-22T01:34:33.272Z,-27.15
2022-11-22T01:35:33.254Z,-27.02
2022-11-22T01:36:33.243Z,-27.37
2022-11-22T01:37:33.265Z,-27.05
2022-11-22T01:38:33.214Z,-27.06
2022-11-22T01:39:33.288Z,-27.09
2022-11-22T01:40:33.193Z,-26.86
2022-11-22T01:41:33.175Z,-27.20
2022-11-22T01:42:33.203Z,-27.50
2022-11-22T01:43:33.155Z,-27.78
2022-11-22T01:44:33.148Z,-28.15
2022-11-22T01:45:33.128Z,-27.81
2022-11-22T01:46:33.116Z,-28.04
2022-11-22T01:47:33.134Z,-28.07
2022-11-22T01:48:33.093Z,-28.31
2022-11-22T01:49:33.131Z,-28.20
2022-11-22T01:50:36.075Z,-28.25
2022-11-22T01:51:36.056Z,-28.48
2022-11-22T01:52:33.067Z,-28.32
2022-11-22T01:53:33.024Z,-28.10
2022-11-22T01:54:33.082Z,-27.95
2022-11-22T01:55:32.997Z,-27.88
2022-11-22T01:56:32.987Z,-28.01
2022-11-22T01:57:32.972Z,-28.08
2022-11-22T01:58:32.967Z,-28.41
2022-11-22T01:59:33.091Z,-28.63
2022-11-22T02:00:32.979Z,-28.50
2022-11-22T02:01:33.026Z,-28.38
2022-11-22T02:02:32.908Z,-28.70
2022-11-22T02:03:32.903Z,-28.62
2022-11-22T02:04:32.903Z,-28.72
2022-11-22T02:05:32.935Z,-28.29
2022-11-22T02:06:32.858Z,-28.37
2022-11-22T02:07:32.894Z,-28.39
2022-11-22T02:08:32.832Z,-28.39
2022-11-22T02:09:33.037Z,-28.45
2022-11-22T02:10:35.828Z,-28.78
2022-11-22T02:11:35.800Z,-28.52
2022-11-22T02:12:32.769Z,-28.98
2022-11-22T02:13:32.760Z,-28.93
2022-11-22T02:14:32.761Z,-28.46
2022-11-22T02:15:32.779Z,-28.51
2022-11-22T02:16:32.720Z,-29.12
2022-11-22T02:17:32.700Z,-28.62
2022-11-22T02:18:32.690Z,-28.97
2022-11-22T02:19:32.869Z,-29.41
2022-11-22T02:20:32.661Z,-29.02
2022-11-22T02:21:32.681Z,-29.15
2022-11-22T02:22:32.639Z,-29.60
2022-11-22T02:23:32.650Z,-29.87
2022-11-22T02:24:32.612Z,-29.87
2022-11-22T02:25:32.592Z,-29.92
2022-11-22T02:26:32.583Z,-30.00
2022-11-22T02:27:32.603Z,-29.76
2022-11-22T02:28:32.580Z,-29.54
2022-11-22T02:29:32.771Z,-29.50
2022-11-22T02:30:35.532Z,-29.83
2022-11-22T02:31:35.540Z,-29.87
2022-11-22T02:32:32.563Z,-30.41
2022-11-22T02:33:32.482Z,-30.19
2022-11-22T02:34:32.487Z,-30.20
2022-11-22T02:35:32.454Z,-30.29
2022-11-22T02:36:32.452Z,-30.69
2022-11-22T02:37:32.431Z,-30.59
2022-11-22T02:38:32.477Z,-30.76
2022-11-22T02:39:32.743Z,-30.42
2022-11-22T02:40:32.393Z,-30.70
2022-11-22T02:41:32.373Z,-30.76
2022-11-22T02:42:32.363Z,-30.80
2022-11-22T02:43:32.343Z,-30.64
2022-11-22T02:44:32.374Z,-30.63
2022-11-22T02:45:32.344Z,-31.07
2022-11-22T02:46:32.333Z,-31.14
2022-11-22T02:47:32.297Z,-30.96
2022-11-22T02:48:32.274Z,-31.14
2022-11-22T02:49:32.674Z,-31.05
2022-11-22T02:50:35.287Z,-30.93
2022-11-22T02:51:35.246Z,-30.97
2022-11-22T02:52:32.274Z,-30.98
2022-11-22T02:53:32.204Z,-31.00
2022-11-22T02:54:32.213Z,-30.96
2022-11-22T02:55:32.184Z,-31.09
2022-11-22T02:56:32.172Z,-31.05
2022-11-22T02:57:32.155Z,-30.84
2022-11-22T02:58:32.175Z,-31.35
2022-11-22T02:59:32.368Z,-31.44
2022-11-22T03:00:32.124Z,-31.24
2022-11-22T03:01:32.159Z,-31.12
2022-11-22T03:02:32.120Z,-31.27
2022-11-22T03:03:32.075Z,-31.59
2022-11-22T03:04:32.057Z,-32.14
2022-11-22T03:05:32.058Z,-32.03
2022-11-22T03:06:32.056Z,-32.20
2022-11-22T03:07:32.052Z,-32.32
2022-11-22T03:08:32.037Z,-31.68
2022-11-22T03:09:32.235Z,-31.98
2022-11-22T03:10:35.009Z,-32.03
2022-11-22T03:11:35.030Z,-32.07
2022-11-22T03:12:31.971Z,-32.38
2022-11-22T03:13:31.937Z,-32.32
2022-11-22T03:14:31.927Z,-32.41
2022-11-22T03:15:31.917Z,-32.46
2022-11-22T03:16:31.898Z,-32.52
2022-11-22T03:17:31.917Z,-32.29
2022-11-22T03:18:31.870Z,-32.50
2022-11-22T03:19:32.190Z,-32.37
2022-11-22T03:20:31.849Z,-32.71
2022-11-22T03:21:31.834Z,-33.26
2022-11-22T03:22:31.820Z,-33.35
2022-11-22T03:23:31.830Z,-33.08
2022-11-22T03:24:31.796Z,-33.06
2022-11-22T03:25:31.775Z,-32.94
2022-11-22T03:26:31.758Z,-33.23
2022-11-22T03:27:31.798Z,-33.47
2022-11-22T03:28:31.749Z,-32.92
2022-11-22T03:29:32.020Z,-33.08
2022-11-22T03:30:34.744Z,-33.22
2022-11-22T03:31:34.702Z,-33.24
2022-11-22T03:32:31.702Z,-33.24
2022-11-22T03:33:31.689Z,-33.45
2022-11-22T03:34:31.656Z,-33.48
2022-11-22T03:35:31.646Z,-33.48
2022-11-22T03:36:31.629Z,-33.65
2022-11-22T03:37:31.610Z,-33.80
2022-11-22T03:38:31.666Z,-33.64
2022-11-22T03:39:31.814Z,-33.97
2022-11-22T03:40:31.570Z,-34.00
2022-11-22T03:41:31.561Z,-33.69
2022-11-22T03:42:31.541Z,-33.63
2022-11-22T03:43:31.530Z,-33.39
2022-11-22T03:44:31.545Z,-34.08
2022-11-22T03:45:31.502Z,-34.32
2022-11-22T03:46:31.491Z,-34.09
2022-11-22T03:47:31.473Z,-33.68
2022-11-22T03:48:31.472Z,-33.60
2022-11-22T03:49:31.850Z,-34.01
2022-11-22T03:50:34.482Z,-34.15
2022-11-22T03:51:34.441Z,-33.89
2022-11-22T03:52:31.412Z,-34.28
2022-11-22T03:53:31.392Z,-34.23
2022-11-22T03:54:31.381Z,-33.96
2022-11-22T03:55:31.373Z,-33.93
2022-11-22T03:56:31.384Z,-33.76
2022-11-22T03:57:31.333Z,-33.65
2022-11-22T03:58:31.336Z,-33.75
2022-11-22T03:59:31.533Z,-33.73
2022-11-22T04:00:31.304Z,-33.73
2022-11-22T04:01:31.327Z,-33.75
2022-11-22T04:02:31.306Z,-33.83
2022-11-22T04:03:31.263Z,-34.15
2022-11-22T04:04:31.260Z,-33.65
2022-11-22T04:05:31.234Z,-33.73
2022-11-22T04:06:31.224Z,-33.93
2022-11-22T04:07:31.275Z,-33.86
2022-11-22T04:08:31.318Z,-33.59
2022-11-22T04:09:31.477Z,-33.40
2022-11-22T04:10:34.167Z,-33.66
2022-11-22T04:11:34.165Z,-33.22
2022-11-22T04:12:31.188Z,-33.26
2022-11-22T04:13:31.156Z,-33.32
2022-11-22T04:14:31.157Z,-33.68
2022-11-22T04:15:31.105Z,-33.42
2022-11-22T04:16:31.085Z,-33.16
2022-11-22T04:17:31.086Z,-33.47
2022-11-22T04:18:31.066Z,-33.26
2022-11-22T04:19:31.303Z,-33.36
2022-11-22T04:20:31.066Z,-33.59
2022-11-22T04:21:31.019Z,-33.43
2022-11-22T04:22:31.050Z,-33.24
2022-11-22T04:23:34.223Z,-33.09
2022-11-22T04:24:30.979Z,-32.78
2022-11-22T04:25:30.982Z,-32.52
2022-11-22T04:26:30.958Z,-32.57
2022-11-22T04:27:30.935Z,-32.60
2022-11-22T04:28:54.148Z,-33.18
2022-11-22T04:29:32.293Z,-32.80
2022-11-22T04:30:33.910Z,-32.98
2022-11-22T04:31:33.910Z,-32.85
2022-11-22T04:32:30.868Z,-33.04
2022-11-22T04:33:30.873Z,-33.02
2022-11-22T04:34:30.878Z,-32.96
2022-11-22T04:35:30.862Z,-32.83
2022-11-22T04:36:30.823Z,-33.08
2022-11-22T04:37:30.807Z,-32.42
2022-11-22T04:38:30.799Z,-32.85
2022-11-22T04:39:31.049Z,-32.75
2022-11-22T04:40:30.771Z,-33.03
2022-11-22T04:41:30.768Z,-32.82
2022-11-22T04:42:30.765Z,-33.07
2022-11-22T04:43:30.721Z,-33.07
2022-11-22T04:44:30.715Z,-33.01
2022-11-22T04:45:30.724Z,-32.95
2022-11-22T04:46:30.702Z,-32.71
2022-11-22T04:47:30.671Z,-32.84
2022-11-22T04:48:30.669Z,-33.11
2022-11-22T04:49:31.051Z,-32.95
2022-11-22T04:50:33.661Z,-32.92
2022-11-22T04:51:33.629Z,-33.01
2022-11-22T04:52:30.641Z,-33.48
2022-11-22T04:53:30.591Z,-33.58
2022-11-22T04:54:30.572Z,-33.38
2022-11-22T04:55:30.599Z,-33.30
2022-11-22T04:56:30.550Z,-33.74
2022-11-22T04:57:30.591Z,-33.26
2022-11-22T04:58:30.521Z,-32.61
2022-11-22T04:59:30.865Z,-32.49
2022-11-22T05:00:30.493Z,-32.75
2022-11-22T05:01:30.544Z,-32.96
2022-11-22T05:02:30.462Z,-32.42
2022-11-22T05:03:30.484Z,-32.80
2022-11-22T05:04:30.441Z,-32.89
2022-11-22T05:05:30.446Z,-32.83
2022-11-22T05:06:30.422Z,-32.68
2022-11-22T05:07:30.490Z,-32.39
2022-11-22T05:08:30.385Z,-32.69
2022-11-22T05:09:30.672Z,-32.96
2022-11-22T05:10:33.403Z,-32.51
2022-11-22T05:11:33.383Z,-32.13
2022-11-22T05:12:30.358Z,-32.46
2022-11-22T05:13:30.322Z,-32.92
2022-11-22T05:14:30.380Z,-32.89
2022-11-22T05:15:30.494Z,-32.83
2022-11-22T05:16:30.290Z,-33.27
2022-11-22T05:17:30.317Z,-34.24
2022-11-22T05:18:30.263Z,-34.18
2022-11-22T05:19:30.537Z,-34.61
2022-11-22T05:20:30.226Z,-35.26
2022-11-22T05:21:30.279Z,-35.01
2022-11-22T05:22:30.206Z,-34.83
2022-11-22T05:23:30.196Z,-35.52
2022-11-22T05:24:30.174Z,-35.31
2022-11-22T05:25:30.165Z,-35.59
2022-11-22T05:26:30.146Z,-36.42
2022-11-22T05:27:30.188Z,-35.75
2022-11-22T05:28:30.125Z,-35.90
2022-11-22T05:29:30.392Z,-35.58
2022-11-22T05:30:33.094Z,-36.17
2022-11-22T05:31:33.097Z,-35.96
2022-11-22T05:32:30.080Z,-35.81
2022-11-22T05:33:30.098Z,-36.71
2022-11-22T05:34:30.046Z,-36.82
2022-11-22T05:35:30.030Z,-36.40
2022-11-22T05:36:30.041Z,-36.55
2022-11-22T05:37:30.010Z,-36.82
2022-11-22T05:38:29.991Z,-36.83
2022-11-22T05:39:30.224Z,-36.65
2022-11-22T05:40:29.963Z,-36.18
2022-11-22T05:41:29.984Z,-36.32
2022-11-22T05:42:29.939Z,-36.37
2022-11-22T05:43:29.919Z,-36.71
2022-11-22T05:44:29.908Z,-36.52
2022-11-22T05:45:29.930Z,-35.89
2022-11-22T05:46:29.880Z,-35.63
2022-11-22T05:47:29.872Z,-36.00
2022-11-22T05:48:29.850Z,-36.15
2022-11-22T05:49:30.169Z,-36.44
2022-11-22T05:50:32.849Z,-35.91
2022-11-22T05:51:34.818Z,-36.22
2022-11-22T05:52:29.798Z,-36.18
2022-11-22T05:53:29.791Z,-36.77
2022-11-22T05:54:29.772Z,-36.61
2022-11-22T05:55:29.852Z,-36.80
2022-11-22T05:56:29.750Z,-37.38
2022-11-22T05:57:29.750Z,-37.54
2022-11-22T05:58:29.725Z,-37.45
2022-11-22T05:59:29.876Z,-37.24
2022-11-22T06:00:29.691Z,-37.53
2022-11-22T06:01:29.720Z,-37.99
2022-11-22T06:02:29.732Z,-37.29
2022-11-22T06:03:29.659Z,-36.99
2022-11-22T06:04:29.647Z,-36.69
2022-11-22T06:05:29.632Z,-36.94
2022-11-22T06:06:29.640Z,-36.71
2022-11-22T06:07:29.667Z,-37.12
2022-11-22T06:08:29.590Z,-37.54
2022-11-22T06:09:29.820Z,-37.58
2022-11-22T06:10:32.562Z,-37.17
2022-11-22T06:11:32.654Z,-36.57
2022-11-22T06:12:29.533Z,-37.32
2022-11-22T06:13:29.535Z,-38.06
2022-11-22T06:14:29.506Z,-37.62
2022-11-22T06:15:29.493Z,-37.86
2022-11-22T06:16:29.487Z,-37.65
2022-11-22T06:17:29.494Z,-37.44
2022-11-22T06:18:29.463Z,-37.52
2022-11-22T06:19:29.751Z,-37.96
2022-11-22T06:20:29.462Z,-37.75
2022-11-22T06:21:29.425Z,-37.67
2022-11-22T06:22:29.404Z,-37.62
2022-11-22T06:23:29.410Z,-38.25
2022-11-22T06:24:29.382Z,-38.63
2022-11-22T06:25:29.416Z,-37.26
2022-11-22T06:26:30.150Z,-37.86
2022-11-22T06:27:29.337Z,-38.23
2022-11-22T06:28:29.324Z,-39.06
2022-11-22T06:29:29.597Z,-38.68
2022-11-22T06:30:32.347Z,-38.55
2022-11-22T06:31:32.297Z,-38.95
2022-11-22T06:32:29.266Z,-39.18
2022-11-22T06:33:29.269Z,-39.55
2022-11-22T06:34:29.248Z,-38.82
2022-11-22T06:35:29.236Z,-38.94
2022-11-22T06:36:29.290Z,-39.02
2022-11-22T06:37:29.208Z,-38.99
2022-11-22T06:38:29.201Z,-39.34
2022-11-22T06:39:29.658Z,-39.00
2022-11-22T06:40:29.180Z,-39.01
2022-11-22T06:41:29.177Z,-38.77
2022-11-22T06:42:29.199Z,-39.19
2022-11-22T06:43:29.136Z,-38.90
2022-11-22T06:44:29.169Z,-38.79
2022-11-22T06:45:29.127Z,-38.49
2022-11-22T06:46:29.128Z,-38.16
2022-11-22T06:47:29.081Z,-38.30
2022-11-22T06:48:29.099Z,-38.18
2022-11-22T06:49:29.428Z,-38.04
2022-11-22T06:50:32.039Z,-38.20
2022-11-22T06:51:32.073Z,-38.20
2022-11-22T06:52:29.009Z,-38.42
2022-11-22T06:53:46.108Z,-38.73
2022-11-22T06:54:29.978Z,-38.67
2022-11-22T06:55:49.507Z,-38.22
2022-11-22T06:56:29.978Z,-38.28
2022-11-22T06:57:28.952Z,-38.79
2022-11-22T06:58:28.940Z,-38.76
2022-11-22T06:59:29.229Z,-39.27
2022-11-22T07:00:28.919Z,-38.81
2022-11-22T07:01:29.095Z,-39.69
2022-11-22T07:02:28.879Z,-39.11
2022-11-22T07:03:28.871Z,-39.15
2022-11-22T07:04:28.858Z,-39.61
2022-11-22T07:05:28.840Z,-39.24
2022-11-22T07:06:28.850Z,-38.98
2022-11-22T07:07:28.939Z,-38.81
2022-11-22T07:08:28.801Z,-38.25
2022-11-22T07:09:29.010Z,-38.18
2022-11-22T07:10:31.773Z,-38.02
2022-11-22T07:11:31.771Z,-38.37
2022-11-22T07:12:28.741Z,-38.65
2022-11-22T07:13:28.791Z,-38.68
2022-11-22T07:14:28.757Z,-38.47
2022-11-22T07:15:28.702Z,-38.95
2022-11-22T07:16:28.692Z,-38.88
2022-11-22T07:17:28.682Z,-39.10
2022-11-22T07:18:28.684Z,-39.00
2022-11-22T07:19:29.094Z,-39.32
2022-11-22T07:20:28.644Z,-39.44
2022-11-22T07:21:28.660Z,-39.77
2022-11-22T07:22:28.623Z,-39.42
2022-11-22T07:23:28.611Z,-39.48
2022-11-22T07:24:28.694Z,-39.80
2022-11-22T07:25:28.606Z,-39.50
2022-11-22T07:26:28.737Z,-39.36
2022-11-22T07:27:28.551Z,-39.84
2022-11-22T07:28:28.540Z,-40.06
2022-11-22T07:29:28.879Z,-41.05
2022-11-22T07:30:31.532Z,-40.84
2022-11-22T07:31:31.543Z,-40.99
2022-11-22T07:32:28.520Z,-40.94
2022-11-22T07:33:28.473Z,-40.39
2022-11-22T07:34:28.463Z,-40.57
2022-11-22T07:35:28.464Z,-40.95
2022-11-22T07:36:28.434Z,-41.03
2022-11-22T07:37:28.424Z,-40.93
2022-11-22T07:38:28.464Z,-40.78
2022-11-22T07:39:28.756Z,-41.09
2022-11-22T07:40:28.479Z,-41.46
2022-11-22T07:41:28.366Z,-41.60
2022-11-22T07:42:28.369Z,-41.82
2022-11-22T07:43:28.343Z,-41.73
2022-11-22T07:44:28.356Z,-41.62
2022-11-22T07:45:28.319Z,-41.61
2022-11-22T07:46:28.296Z,-41.90
2022-11-22T07:47:28.287Z,-41.87
2022-11-22T07:48:28.286Z,-42.16
2022-11-22T07:49:28.550Z,-42.34
2022-11-22T07:50:31.285Z,-42.30
2022-11-22T07:51:31.264Z,-42.74
2022-11-22T07:52:28.224Z,-42.92
2022-11-22T07:53:28.217Z,-42.35
2022-11-22T07:54:28.207Z,-42.63
2022-11-22T07:55:28.186Z,-42.73
2022-11-22T07:56:28.248Z,-43.17
2022-11-22T07:57:28.169Z,-43.25
2022-11-22T07:58:28.139Z,-43.30
2022-11-22T07:59:28.491Z,-43.35
2022-11-22T08:00:28.128Z,-43.14
2022-11-22T08:01:28.158Z,-43.34
2022-11-22T08:02:28.089Z,-43.93
2022-11-22T08:03:29.352Z,-44.39
2022-11-22T08:04:28.100Z,-44.22
2022-11-22T08:05:28.078Z,-44.08
2022-11-22T08:06:28.060Z,-44.59
2022-11-22T08:07:28.072Z,-44.19
2022-11-22T08:08:28.011Z,-44.28
2022-11-22T08:09:28.093Z,-44.50
2022-11-22T08:10:30.985Z,-45.03
2022-11-22T08:11:31.021Z,-45.04
2022-11-22T08:12:27.963Z,-44.89
2022-11-22T08:13:27.962Z,-45.00
2022-11-22T08:14:27.963Z,-45.00
2022-11-22T08:15:27.920Z,-44.60
2022-11-22T08:16:27.920Z,-45.05
2022-11-22T08:17:27.949Z,-45.48
2022-11-22T08:18:27.880Z,-44.95
2022-11-22T08:19:28.169Z,-45.27
2022-11-22T08:20:27.860Z,-45.44
2022-11-22T08:21:27.841Z,-45.66
2022-11-22T08:22:27.835Z,-46.06
2022-11-22T08:23:27.860Z,-46.33
2022-11-22T08:24:27.810Z,-46.24
2022-11-22T08:25:27.794Z,-45.86
2022-11-22T08:26:27.771Z,-45.73
2022-11-22T08:27:27.784Z,-46.29
2022-11-22T08:28:27.751Z,-46.29
2022-11-22T08:29:27.963Z,-46.95
2022-11-22T08:30:30.720Z,-46.94
2022-11-22T08:31:30.732Z,-47.29
2022-11-22T08:32:27.692Z,-47.61
2022-11-22T08:33:27.682Z,-47.48
2022-11-22T08:34:27.699Z,-47.85
2022-11-22T08:35:27.719Z,-47.88
2022-11-22T08:36:27.644Z,-48.29
2022-11-22T08:37:27.633Z,-48.47
2022-11-22T08:38:27.623Z,-48.38
2022-11-22T08:39:27.858Z,-48.38
2022-11-22T08:40:27.600Z,-48.52
2022-11-22T08:41:27.632Z,-48.47
2022-11-22T08:42:27.562Z,-48.58
2022-11-22T08:43:27.570Z,-48.31
2022-11-22T08:44:27.546Z,-48.91
2022-11-22T08:45:27.526Z,-48.47
2022-11-22T08:46:27.521Z,-48.48
2022-11-22T08:47:27.553Z,-48.64
2022-11-22T08:48:27.484Z,-48.61
2022-11-22T08:49:27.753Z,-48.91
2022-11-22T08:50:30.455Z,-49.17
2022-11-22T08:51:30.455Z,-49.32
2022-11-22T08:52:27.429Z,-49.77
2022-11-22T08:53:27.448Z,-50.36
2022-11-22T08:54:27.405Z,-50.87
2022-11-22T08:55:27.394Z,-51.40
2022-11-22T08:56:34.892Z,-51.07
2022-11-22T08:57:27.387Z,-51.67
2022-11-22T08:58:27.426Z,-51.66
2022-11-22T08:59:27.457Z,-51.05
2022-11-22T09:00:33.035Z,-51.39
2022-11-22T09:01:28.347Z,-51.24
2022-11-22T09:02:27.313Z,-51.54
2022-11-22T09:03:27.294Z,-51.52
2022-11-22T09:04:27.334Z,-51.50
2022-11-22T09:05:27.309Z,-52.06
2022-11-22T09:08:31.213Z,-53.44
2022-11-22T09:09:37.294Z,-53.69
2022-11-22T09:10:31.206Z,-53.86
2022-11-22T09:11:30.204Z,-53.54
2022-11-22T09:12:27.192Z,-53.23
2022-11-22T09:13:27.157Z,-53.98
2022-11-22T09:14:27.176Z,-54.31
2022-11-22T09:15:27.147Z,-54.61
2022-11-22T09:16:27.126Z,-54.50
2022-11-22T09:17:27.107Z,-54.94
2022-11-22T09:18:27.096Z,-54.63
2022-11-22T09:19:27.138Z,-54.46
2022-11-22T09:20:27.066Z,-55.02
2022-11-22T09:21:27.047Z,-55.33
2022-11-22T09:22:28.656Z,-55.47
2022-11-22T09:23:27.026Z,-55.62
2022-11-22T09:24:27.015Z,-56.16
2022-11-22T09:25:27.037Z,-55.94
2022-11-22T09:26:26.986Z,-56.89
2022-11-22T09:27:27.039Z,-58.19
2022-11-22T09:28:26.957Z,-58.98
2022-11-22T09:29:26.977Z,-59.13
2022-11-22T09:30:29.959Z,-59.42
2022-11-22T09:31:29.928Z,-59.43
2022-11-22T09:32:32.187Z,-59.30
2022-11-22T09:33:27.891Z,-59.38
2022-11-22T09:34:26.908Z,-59.50
2022-11-22T09:35:26.900Z,-58.91
2022-11-22T09:36:26.857Z,-59.11
2022-11-22T09:37:26.839Z,-59.21
2022-11-22T09:38:26.820Z,-59.48
2022-11-22T09:39:27.031Z,-59.56
2022-11-22T09:40:26.833Z,-59.53
2022-11-22T09:41:26.781Z,-59.53
2022-11-22T09:42:26.769Z,-59.48
2022-11-22T09:43:26.753Z,-59.27
2022-11-22T09:44:26.741Z,-59.24
2022-11-22T09:45:26.731Z,-58.86
2022-11-22T09:46:26.760Z,-58.60
2022-11-22T09:47:26.703Z,-58.55
2022-11-22T09:48:26.697Z,-58.67
2022-11-22T09:49:26.672Z,-58.85
2022-11-22T09:50:29.660Z,-58.84
2022-11-22T09:51:29.691Z,-59.06
2022-11-22T09:52:26.641Z,-59.38
2022-11-22T09:53:26.628Z,-59.67
2022-11-22T09:54:26.611Z,-60.11
2022-11-22T09:55:26.598Z,-60.47
2022-11-22T09:56:26.580Z,-60.23
2022-11-22T09:57:26.633Z,-60.80
2022-11-22T09:58:26.560Z,-61.34
2022-11-22T09:59:26.541Z,-61.18
2022-11-22T10:00:26.532Z,-61.07
2022-11-22T10:01:26.591Z,-60.54
2022-11-22T10:02:26.505Z,-60.91
2022-11-22T10:03:26.517Z,-61.03
2022-11-22T10:04:26.485Z,-61.00
2022-11-22T10:05:26.463Z,-61.38
2022-11-22T10:06:26.445Z,-61.22
2022-11-22T10:07:26.547Z,-61.25
2022-11-22T10:08:26.465Z,-61.47
2022-11-22T10:09:26.406Z,-61.72
2022-11-22T10:10:29.501Z,-62.05
2022-11-22T10:11:33.533Z,-62.15
2022-11-22T10:12:27.389Z,-62.38
2022-11-22T10:13:26.364Z,-62.71
2022-11-22T10:14:26.350Z,-62.73
2022-11-22T10:15:26.325Z,-62.76
2022-11-22T10:16:26.357Z,-63.45
2022-11-22T10:17:26.306Z,-64.00
2022-11-22T10:18:26.298Z,-63.99
2022-11-22T10:19:26.277Z,-64.11
2022-11-22T10:20:26.267Z,-64.29
2022-11-22T10:21:26.257Z,-64.17
2022-11-22T10:22:26.256Z,-64.70
2022-11-22T10:23:26.218Z,-65.04
2022-11-22T10:24:26.209Z,-66.14
2022-11-22T10:25:26.186Z,-66.58
2022-11-22T10:26:26.179Z,-66.40
2022-11-22T10:27:26.209Z,-66.76
2022-11-22T10:28:26.159Z,-66.76
2022-11-22T10:29:26.156Z,-66.92
2022-11-22T10:30:29.129Z,-68.43
2022-11-22T10:31:29.124Z,-68.40
2022-11-22T10:32:26.099Z,-68.40
2022-11-22T10:33:26.112Z,-68.64
2022-11-22T10:34:26.090Z,-68.73
2022-11-22T10:35:26.059Z,-68.76
2022-11-22T10:36:26.077Z,-70.30
2022-11-22T10:37:26.040Z,-70.37
2022-11-22T10:38:26.029Z,-70.29
2022-11-22T10:39:31.472Z,-70.63
2022-11-22T10:40:27.019Z,-70.69
2022-11-22T10:41:25.980Z,-70.70
2022-11-22T10:42:25.970Z,-72.05
2022-11-22T10:43:25.958Z,-72.22
2022-11-22T10:44:25.939Z,-72.49
2022-11-22T10:45:26.119Z,-72.23
2022-11-22T10:46:25.912Z,-72.08
2022-11-22T10:47:28.151Z,-72.31
2022-11-22T10:48:26.880Z,-72.48
2022-11-22T10:49:25.870Z,-72.54
2022-11-22T10:50:28.930Z,-72.43
2022-11-22T10:51:28.854Z,-72.67
2022-11-22T10:52:25.832Z,-74.05
2022-11-22T10:53:25.821Z,-74.37
2022-11-22T10:54:25.801Z,-74.37
2022-11-22T10:55:25.800Z,-74.43
2022-11-22T10:56:25.815Z,-74.43
2022-11-22T10:57:25.761Z,-74.41
2022-11-22T10:58:25.779Z,-74.25
2022-11-22T10:59:28.750Z,-74.51
2022-11-22T11:00:25.724Z,-76.16
2022-11-22T11:01:25.742Z,-76.51
2022-11-22T11:02:25.734Z,-76.55
2022-11-22T11:03:25.683Z,-76.61
2022-11-22T11:04:25.666Z,-78.06
2022-11-22T11:05:25.654Z,-78.01
2022-11-22T11:06:37.886Z,-78.13
2022-11-22T11:07:26.678Z,-78.13
2022-11-22T11:08:47.537Z,-78.31
2022-11-22T11:10:34.488Z,-78.48
2022-11-22T11:11:29.585Z,-78.12
2022-11-22T11:12:25.574Z,-78.11
2022-11-22T11:13:25.553Z,-78.26
2022-11-22T11:14:25.564Z,-78.39
2022-11-22T11:15:25.522Z,-78.26
2022-11-22T11:16:25.505Z,-78.33
2022-11-22T11:17:25.503Z,-78.14
2022-11-22T11:18:25.485Z,-78.08
2022-11-22T11:19:25.495Z,-78.53
2022-11-22T11:20:25.464Z,-78.82
2022-11-22T11:21:25.456Z,-80.34
2022-11-22T11:22:50.288Z,-80.31
2022-11-22T11:23:26.416Z,-80.57
2022-11-22T11:24:25.464Z,-80.50
2022-11-22T11:25:25.398Z,-80.76
2022-11-22T11:26:25.387Z,-80.81
2022-11-22T11:27:25.378Z,-82.62
2022-11-22T11:28:25.357Z,-82.61
2022-11-22T11:29:25.338Z,-82.60
2022-11-22T11:30:28.367Z,-83.06
2022-11-22T11:31:28.329Z,-82.64
2022-11-22T11:32:25.300Z,-82.71
2022-11-22T11:33:25.339Z,-83.00
2022-11-22T11:34:25.280Z,-83.09
2022-11-22T11:35:25.278Z,-83.10
2022-11-22T11:36:25.261Z,-84.60
2022-11-22T11:37:25.477Z,-84.54
2022-11-22T11:38:25.230Z,-85.01
2022-11-22T11:39:25.242Z,-85.15
2022-11-22T11:40:25.200Z,-85.40
2022-11-22T11:41:25.180Z,-85.43
2022-11-22T11:42:25.169Z,-86.77
2022-11-22T11:43:25.198Z,-85.44
2022-11-22T11:44:25.170Z,-86.83
2022-11-22T11:45:25.134Z,-87.01
2022-11-22T11:46:25.112Z,-87.02
2022-11-22T11:47:25.100Z,-87.19
2022-11-22T11:48:25.101Z,-87.21
2022-11-22T11:49:25.102Z,-87.27
2022-11-22T11:50:28.073Z,-87.33
2022-11-22T11:51:28.061Z,-87.42
2022-11-22T11:52:25.035Z,-87.44
2022-11-22T11:53:25.026Z,-87.43
2022-11-22T11:54:25.042Z,-87.65
2022-11-22T11:55:24.992Z,-87.35
2022-11-22T11:56:24.985Z,-87.33
2022-11-22T11:57:24.963Z,-87.12
2022-11-22T11:58:24.954Z,-87.07
2022-11-22T11:59:24.963Z,-86.99
2022-11-22T12:00:24.926Z,-87.03
2022-11-22T12:01:24.914Z,-87.10
2022-11-22T12:02:25.067Z,-87.17
2022-11-22T12:03:24.884Z,-87.31
2022-11-22T12:04:24.925Z,-87.57
2022-11-22T12:05:24.866Z,-87.50
2022-11-22T12:06:24.837Z,-87.55
2022-11-22T12:07:24.888Z,-89.08
2022-11-22T12:08:24.825Z,-87.84
2022-11-22T12:09:24.799Z,-89.40
2022-11-22T12:10:27.838Z,-89.79
2022-11-22T12:11:27.787Z,-90.08
2022-11-22T12:12:24.758Z,-90.30
2022-11-22T12:13:24.745Z,-90.29
2022-11-22T12:14:26.003Z,-90.17
2022-11-22T12:15:24.706Z,-90.01
2022-11-22T12:16:24.741Z,-89.67
2022-11-22T12:17:24.686Z,-90.03
2022-11-22T12:18:24.667Z,-90.28
2022-11-22T12:19:25.233Z,-90.26
2022-11-22T12:20:24.657Z,-90.17
2022-11-22T12:21:24.688Z,-90.21
2022-11-22T12:22:48.279Z,-90.35
2022-11-22T12:23:25.631Z,-90.22
2022-11-22T12:24:48.401Z,-90.33
2022-11-22T12:25:32.586Z,-90.28
2022-11-22T12:26:25.589Z,-91.81
2022-11-22T12:27:24.550Z,-91.97
2022-11-22T12:28:24.536Z,-92.09
2022-11-22T12:29:24.548Z,-92.48
2022-11-22T12:30:27.530Z,-92.79
2022-11-22T12:31:27.501Z,-93.01